createdAt,value
2023-04-02T00:00:13.850Z,45.75
2023-04-02T00:02:55.392Z,46.33
2023-04-02T00:05:47.187Z,40.90
2023-04-02T00:08:28.278Z,46.88
2023-04-02T00:10:58.380Z,42.08
2023-04-02T00:13:32.778Z,45.60
2023-04-02T00:16:02.051Z,54.67
2023-04-02T00:18:31.900Z,61.90
2023-04-02T00:21:09.195Z,48.30
2023-04-02T00:23:40.177Z,44.67
2023-04-02T00:26:21.789Z,45.25
2023-04-02T00:28:49.918Z,45.92
2023-04-02T00:31:20.239Z,48.15
2023-04-02T00:33:49.297Z,53.80
2023-04-02T00:36:19.135Z,65.13
2023-04-02T00:38:50.573Z,58.70
2023-04-02T00:41:24.281Z,52.13
2023-04-02T00:43:58.514Z,52.22
2023-04-02T00:46:30.839Z,66.03
2023-04-02T00:49:03.474Z,62.55
2023-04-02T00:51:36.391Z,51.00
2023-04-02T00:54:10.669Z,48.28
2023-04-02T00:56:42.485Z,55.78
2023-04-02T00:59:20.291Z,74.07
2023-04-02T01:01:53.458Z,55.13
2023-04-02T01:04:30.886Z,39.22
2023-04-02T01:06:59.567Z,41.80
2023-04-02T01:09:48.832Z,61.05
2023-04-02T01:12:38.012Z,50.70
2023-04-02T01:15:13.396Z,53.78
2023-04-02T01:17:58.693Z,56.22
2023-04-02T01:20:50.918Z,55.83
2023-04-02T01:23:26.758Z,37.67
2023-04-02T01:26:03.500Z,48.03
2023-04-02T01:28:36.618Z,66.00
2023-04-02T01:31:06.078Z,58.42
2023-04-02T01:33:35.594Z,47.80
2023-04-02T01:36:09.730Z,64.93
2023-04-02T01:38:41.761Z,48.35
2023-04-02T01:41:18.945Z,42.30
2023-04-02T01:43:51.832Z,50.58
2023-04-02T01:46:29.197Z,65.40
2023-04-02T01:49:00.168Z,53.95
2023-04-02T01:51:30.349Z,70.30
2023-04-02T01:54:00.760Z,64.97
2023-04-02T01:56:30.153Z,55.50
2023-04-02T01:58:59.165Z,43.35
2023-04-02T02:01:35.323Z,48.05
2023-04-02T02:04:04.189Z,53.72
2023-04-02T02:06:31.906Z,58.42
2023-04-02T02:09:04.664Z,52.92
2023-04-02T02:11:33.936Z,55.95
2023-04-02T02:14:06.266Z,52.58
2023-04-02T02:16:41.417Z,60.85
2023-04-02T02:19:20.329Z,62.22
2023-04-02T02:21:51.796Z,47.88
2023-04-02T02:24:23.780Z,47.67
2023-04-02T02:27:08.771Z,48.65
2023-04-02T02:29:40.567Z,44.90
2023-04-02T02:32:11.828Z,52.00
2023-04-02T02:34:44.126Z,59.60
2023-04-02T02:37:16.396Z,57.28
2023-04-02T02:39:46.621Z,51.90
2023-04-02T02:42:18.454Z,48.53
2023-04-02T02:47:20.030Z,51.25
2023-04-02T02:49:51.378Z,50.58
2023-04-02T02:52:20.876Z,63.72
2023-04-02T02:54:52.089Z,55.15
2023-04-02T02:57:23.105Z,44.72
2023-04-02T02:59:53.006Z,58.22
2023-04-02T03:02:22.970Z,48.83
2023-04-02T03:04:53.769Z,59.05
2023-04-02T03:07:24.952Z,45.07
2023-04-02T03:09:59.589Z,53.47
2023-04-02T03:12:42.105Z,60.80
2023-04-02T03:15:19.186Z,46.50
2023-04-02T03:17:53.613Z,52.22
2023-04-02T03:20:27.805Z,60.38
2023-04-02T03:23:00.100Z,59.92
2023-04-02T03:25:36.085Z,66.13
2023-04-02T03:28:07.806Z,60.50
2023-04-02T03:30:42.394Z,51.95
2023-04-02T03:33:17.493Z,56.50
2023-04-02T03:35:52.813Z,64.85
2023-04-02T03:38:25.167Z,57.30
2023-04-02T03:41:01.533Z,65.38
2023-04-02T03:43:34.646Z,55.30
2023-04-02T03:46:16.229Z,45.38
2023-04-02T03:51:20.507Z,44.67
2023-04-02T03:53:49.399Z,51.72
2023-04-02T03:56:26.088Z,49.85
2023-04-02T03:59:03.205Z,46.72
2023-04-02T04:01:37.620Z,42.03
2023-04-02T04:04:12.531Z,55.25
2023-04-02T04:06:43.362Z,50.53
2023-04-02T04:11:48.868Z,55.58
2023-04-02T04:14:21.412Z,55.40
2023-04-02T04:16:54.016Z,48.63
2023-04-02T04:19:28.563Z,52.40
2023-04-02T04:22:11.074Z,58.53
2023-04-02T04:24:39.169Z,60.65
2023-04-02T04:27:14.029Z,55.03
2023-04-02T04:29:49.380Z,53.13
2023-04-02T04:32:24.420Z,42.60
2023-04-02T04:34:58.482Z,51.83
2023-04-02T04:37:31.979Z,53.67
2023-04-02T04:40:03.621Z,62.42
2023-04-02T04:42:36.331Z,56.30
2023-04-02T04:45:16.884Z,53.65
2023-04-02T04:47:51.844Z,63.03
2023-04-02T04:50:30.289Z,60.30
2023-04-02T04:53:05.669Z,66.95
2023-04-02T04:55:38.658Z,48.63
2023-04-02T04:58:18.874Z,54.25
2023-04-02T05:00:56.396Z,51.72
2023-04-02T05:03:39.666Z,37.15
2023-04-02T05:06:15.843Z,57.33
2023-04-02T05:08:47.636Z,48.88
2023-04-02T05:11:23.669Z,39.38
2023-04-02T05:13:56.934Z,42.50
2023-04-02T05:16:30.323Z,44.92
2023-04-02T05:19:07.910Z,51.20
2023-04-02T05:21:42.434Z,38.38
2023-04-02T05:24:36.513Z,41.53
2023-04-02T05:27:15.657Z,49.78
2023-04-02T05:29:50.474Z,53.70
2023-04-02T05:32:23.115Z,44.42
2023-04-02T05:34:54.777Z,41.85
2023-04-02T05:37:30.441Z,41.42
2023-04-02T05:40:00.663Z,38.53
2023-04-02T05:42:31.785Z,43.67
2023-04-02T05:45:09.605Z,49.83
2023-04-02T05:47:43.740Z,58.20
2023-04-02T05:50:24.555Z,42.80
2023-04-02T05:52:58.900Z,51.13
2023-04-02T05:55:37.192Z,51.53
2023-04-02T05:58:34.001Z,46.67
2023-04-02T06:01:05.814Z,42.58
2023-04-02T06:03:44.247Z,42.28
2023-04-02T06:06:18.871Z,47.03
2023-04-02T06:08:56.368Z,54.17
2023-04-02T06:11:28.021Z,39.55
2023-04-02T06:13:55.907Z,44.05
2023-04-02T06:16:28.175Z,49.90
2023-04-02T06:19:01.321Z,34.70
2023-04-02T06:21:29.545Z,40.20
2023-04-02T06:24:03.499Z,34.13
2023-04-02T06:26:35.149Z,42.60
2023-04-02T06:29:08.703Z,47.42
2023-04-02T06:31:44.971Z,43.88
2023-04-02T06:34:17.386Z,48.03
2023-04-02T06:36:47.766Z,40.00
2023-04-02T06:39:19.899Z,39.22
2023-04-02T06:41:53.091Z,44.17
2023-04-02T06:44:24.444Z,51.40
2023-04-02T06:46:55.607Z,42.38
2023-04-02T06:49:29.575Z,47.97
2023-04-02T06:52:00.437Z,44.78
2023-04-02T06:54:30.004Z,48.83
2023-04-02T06:56:57.700Z,41.75
2023-04-02T06:59:26.262Z,47.28
2023-04-02T07:01:58.932Z,42.17
2023-04-02T07:04:27.362Z,48.63
2023-04-02T07:06:55.587Z,39.45
2023-04-02T07:09:23.201Z,35.88
2023-04-02T07:11:52.358Z,35.33
2023-04-02T07:14:20.317Z,37.28
2023-04-02T07:16:48.008Z,43.97
2023-04-02T07:19:19.294Z,46.20
2023-04-02T07:21:49.215Z,41.97
2023-04-02T07:24:16.849Z,46.63
2023-04-02T07:26:44.626Z,39.88
2023-04-02T07:29:16.726Z,38.65
2023-04-02T07:31:45.018Z,45.97
2023-04-02T07:34:12.691Z,39.88
2023-04-02T07:36:40.462Z,41.20
2023-04-02T07:39:08.381Z,48.65
2023-04-02T07:41:51.328Z,45.88
2023-04-02T07:44:20.523Z,36.25
2023-04-02T07:46:48.334Z,47.15
2023-04-02T07:49:18.448Z,40.67
2023-04-02T07:51:46.173Z,49.88
2023-04-02T07:54:13.913Z,39.53
2023-04-02T07:56:41.492Z,53.42
2023-04-02T07:59:09.677Z,42.80
2023-04-02T08:01:39.427Z,48.45
2023-04-02T08:04:17.797Z,52.90
2023-04-02T08:06:47.153Z,53.45
2023-04-02T08:09:15.788Z,52.78
2023-04-02T08:11:44.132Z,51.60
2023-04-02T08:14:12.374Z,48.90
2023-04-02T08:16:52.108Z,52.28
2023-04-02T08:19:24.125Z,59.67
2023-04-02T08:21:51.918Z,63.65
2023-04-02T08:24:19.720Z,44.95
2023-04-02T08:26:48.986Z,50.90
2023-04-02T08:29:16.707Z,56.80
2023-04-02T08:31:45.272Z,57.85
2023-04-02T08:34:14.491Z,43.08
2023-04-02T08:36:44.554Z,47.83
2023-04-02T08:39:12.517Z,50.95
2023-04-02T08:41:47.306Z,40.45
2023-04-02T08:44:38.701Z,44.83
2023-04-02T08:47:08.156Z,51.15
2023-04-02T08:49:43.166Z,41.88
2023-04-02T08:52:21.604Z,51.80
2023-04-02T08:54:49.672Z,42.40
2023-04-02T08:57:27.512Z,39.30
2023-04-02T09:00:01.742Z,37.03
2023-04-02T09:02:37.986Z,48.47
2023-04-02T09:05:17.179Z,46.20
2023-04-02T09:07:47.382Z,41.33
2023-04-02T09:10:16.734Z,49.72
2023-04-02T09:12:52.690Z,36.63
2023-04-02T09:15:28.738Z,39.10
2023-04-02T09:18:00.438Z,38.00
2023-04-02T09:20:33.516Z,39.63
2023-04-02T09:23:01.732Z,33.67
2023-04-02T09:25:31.092Z,32.80
2023-04-02T09:28:04.925Z,35.35
2023-04-02T09:30:49.465Z,38.97
2023-04-02T09:33:17.177Z,36.83
2023-04-02T09:35:56.925Z,37.35
2023-04-02T09:38:26.674Z,40.38
2023-04-02T09:40:59.753Z,47.53
2023-04-02T09:43:29.890Z,52.53
2023-04-02T09:46:02.962Z,48.67
2023-04-02T09:48:34.226Z,62.45
2023-04-02T09:51:23.080Z,60.33
2023-04-02T09:54:06.352Z,54.17
2023-04-02T09:56:36.803Z,69.47
2023-04-02T09:59:06.603Z,66.43
2023-04-02T10:01:36.855Z,80.57
2023-04-02T10:04:06.748Z,82.25
2023-04-02T10:06:35.785Z,69.05
2023-04-02T10:09:25.896Z,74.20
2023-04-02T10:11:54.702Z,82.68
2023-04-02T10:14:27.878Z,71.22
2023-04-02T10:16:58.922Z,76.47
2023-04-02T10:19:31.329Z,68.50
2023-04-02T10:22:06.653Z,72.30
2023-04-02T10:24:34.757Z,64.90
2023-04-02T10:27:11.445Z,62.42
2023-04-02T10:30:09.664Z,54.90
2023-04-02T10:32:44.540Z,48.88
2023-04-02T10:35:21.525Z,39.33
2023-04-02T10:38:09.481Z,47.55
2023-04-02T10:40:41.986Z,57.10
2023-04-02T10:43:48.612Z,45.30
2023-04-02T10:46:25.097Z,44.30
2023-04-02T10:49:03.373Z,43.85
2023-04-02T10:51:40.521Z,47.20
2023-04-02T10:54:25.638Z,40.47
2023-04-02T10:56:56.644Z,42.47
2023-04-02T10:59:28.820Z,44.58
2023-04-02T11:01:59.436Z,36.63
2023-04-02T11:04:31.176Z,40.47
2023-04-02T11:07:13.840Z,41.15
2023-04-02T11:09:50.192Z,35.33
2023-04-02T11:12:23.167Z,36.50
2023-04-02T11:14:55.750Z,45.75
2023-04-02T11:17:24.823Z,41.05
2023-04-02T11:19:52.490Z,38.20
2023-04-02T11:22:22.563Z,42.75
2023-04-02T11:24:53.331Z,41.15
2023-04-02T11:27:25.339Z,38.95
2023-04-02T11:30:05.345Z,46.20
2023-04-02T11:32:38.457Z,44.67
2023-04-02T11:35:36.495Z,46.53
2023-04-02T11:38:42.461Z,39.22
2023-04-02T11:41:11.897Z,41.38
2023-04-02T11:43:51.157Z,44.03
2023-04-02T11:46:43.818Z,48.53
2023-04-02T11:49:35.292Z,41.50
2023-04-02T11:52:11.967Z,39.67
2023-04-02T11:54:40.985Z,41.60
2023-04-02T11:57:23.133Z,50.58
2023-04-02T12:00:18.821Z,38.92
2023-04-02T12:03:01.941Z,44.38
2023-04-02T12:05:34.721Z,35.30
2023-04-02T12:08:19.760Z,39.83
2023-04-02T12:10:56.659Z,40.28
2023-04-02T12:13:53.805Z,36.13
2023-04-02T12:16:22.790Z,40.30
2023-04-02T12:18:52.561Z,42.03
2023-04-02T12:21:22.608Z,33.92
2023-04-02T12:23:53.636Z,42.58
2023-04-02T12:26:33.968Z,33.90
2023-04-02T12:29:25.257Z,36.47
2023-04-02T12:34:23.355Z,28.27
2023-04-02T12:36:58.799Z,36.47
2023-04-02T12:39:28.301Z,36.35
2023-04-02T12:41:56.672Z,33.97
2023-04-02T12:44:27.848Z,32.35
2023-04-02T12:46:56.780Z,35.30
2023-04-02T12:49:33.360Z,38.58
2023-04-02T12:52:03.706Z,40.38
2023-04-02T12:54:36.865Z,42.10
2023-04-02T12:57:34.230Z,46.47
2023-04-02T13:00:32.181Z,50.13
2023-04-02T13:03:08.426Z,49.40
2023-04-02T13:05:40.250Z,50.38
2023-04-02T13:08:17.837Z,52.15
2023-04-02T13:10:52.010Z,52.25
2023-04-02T13:13:26.684Z,80.68
2023-04-02T13:16:04.434Z,129.60
2023-04-02T13:18:35.227Z,74.82
2023-04-02T13:21:04.724Z,195.53
2023-04-02T13:23:35.007Z,83.85
2023-04-02T13:26:12.087Z,110.28
2023-04-02T13:28:39.816Z,97.38
2023-04-02T13:31:14.949Z,132.60
2023-04-02T13:33:45.310Z,144.25
2023-04-02T13:36:15.873Z,128.13
2023-04-02T13:38:43.963Z,126.87
2023-04-02T13:41:20.380Z,157.25
2023-04-02T13:43:49.400Z,102.75
2023-04-02T13:46:21.260Z,95.70
2023-04-02T13:48:50.543Z,87.00
2023-04-02T13:51:19.448Z,114.55
2023-04-02T13:53:49.918Z,106.82
2023-04-02T13:56:17.713Z,92.63
2023-04-02T13:58:45.727Z,87.93
2023-04-02T14:01:15.597Z,94.15
2023-04-02T14:03:46.837Z,84.68
2023-04-02T14:06:22.086Z,78.80
2023-04-02T14:08:59.167Z,127.20
2023-04-02T14:11:36.151Z,117.63
2023-04-02T14:14:34.559Z,92.50
2023-04-02T14:17:13.555Z,149.55
2023-04-02T14:20:05.492Z,357.48
2023-04-02T14:22:46.628Z,108.40
2023-04-02T14:25:22.144Z,90.22
2023-04-02T14:27:58.575Z,159.13
2023-04-02T14:30:38.630Z,132.85
2023-04-02T14:33:14.777Z,129.32
2023-04-02T14:35:47.162Z,80.53
2023-04-02T14:38:24.994Z,103.95
2023-04-02T14:40:59.861Z,162.85
2023-04-02T14:43:32.621Z,239.32
2023-04-02T14:46:02.316Z,250.35
2023-04-02T14:48:48.558Z,196.02
2023-04-02T14:51:25.353Z,178.45
2023-04-02T14:54:01.011Z,156.65
2023-04-02T14:56:33.608Z,117.88
2023-04-02T15:01:40.891Z,138.85
2023-04-02T15:04:14.802Z,252.77
2023-04-02T15:06:49.371Z,159.98
2023-04-02T15:09:23.932Z,299.50
2023-04-02T15:11:55.444Z,309.70
2023-04-02T15:14:27.463Z,186.23
2023-04-02T15:16:57.680Z,174.20
2023-04-02T15:19:25.737Z,120.53
2023-04-02T15:22:14.412Z,146.95
2023-04-02T15:24:52.667Z,103.65
2023-04-02T15:27:35.711Z,434.38
2023-04-02T15:30:07.314Z,193.02
2023-04-02T15:32:40.212Z,158.82
2023-04-02T15:35:22.083Z,113.72
2023-04-02T15:37:59.616Z,240.57
2023-04-02T15:40:51.306Z,83.55
2023-04-02T15:43:25.271Z,129.88
2023-04-02T15:46:05.662Z,76.35
2023-04-02T15:51:36.428Z,111.60
2023-04-02T15:54:19.729Z,95.57
2023-04-02T15:56:56.817Z,91.35
2023-04-02T15:59:44.307Z,186.63
2023-04-02T16:02:40.555Z,107.15
2023-04-02T16:05:17.769Z,179.20
2023-04-02T16:08:07.139Z,254.10
2023-04-02T16:10:42.648Z,203.73
2023-04-02T16:13:19.217Z,155.05
2023-04-02T16:15:51.887Z,161.85
2023-04-02T16:18:30.366Z,124.25
2023-04-02T16:21:01.525Z,118.22
2023-04-02T16:23:34.298Z,110.40
2023-04-02T16:26:17.886Z,211.70
2023-04-02T16:28:56.868Z,250.60
2023-04-02T16:31:31.593Z,121.03
2023-04-02T16:34:06.662Z,117.80
2023-04-02T16:36:42.536Z,146.75
2023-04-02T16:39:22.590Z,161.43
2023-04-02T16:42:04.452Z,136.00
2023-04-02T16:44:43.591Z,137.55
2023-04-02T16:49:57.483Z,85.43
2023-04-02T16:52:35.481Z,78.50
2023-04-02T16:55:25.768Z,118.65
2023-04-02T16:58:07.078Z,79.63
2023-04-02T17:00:41.560Z,54.60
2023-04-02T17:03:29.460Z,91.63
2023-04-02T17:06:04.777Z,100.25
2023-04-02T17:08:42.003Z,86.68
2023-04-02T17:11:22.969Z,163.23
2023-04-02T17:14:02.223Z,94.47
2023-04-02T17:16:35.350Z,123.22
2023-04-02T17:19:09.960Z,87.80
2023-04-02T17:21:41.645Z,134.43
2023-04-02T17:24:20.055Z,104.70
2023-04-02T17:26:52.758Z,126.72
2023-04-02T17:29:26.860Z,129.43
2023-04-02T17:32:01.384Z,97.10
2023-04-02T17:34:29.813Z,89.85
2023-04-02T17:37:08.874Z,91.75
2023-04-02T17:39:44.412Z,132.73
2023-04-02T17:42:18.467Z,193.48
2023-04-02T17:45:05.278Z,215.30
2023-04-02T17:47:42.452Z,172.27
2023-04-02T17:50:34.045Z,130.10
2023-04-02T17:53:13.108Z,144.15
2023-04-02T17:55:52.276Z,96.97
2023-04-02T17:58:39.022Z,98.82
2023-04-02T18:01:15.673Z,88.40
2023-04-02T18:04:04.285Z,93.75
2023-04-02T18:06:37.007Z,82.68
2023-04-02T18:09:23.938Z,80.68
2023-04-02T18:12:03.452Z,66.40
2023-04-02T18:14:47.757Z,103.20
2023-04-02T18:17:27.365Z,114.88
2023-04-02T18:20:02.856Z,86.53
2023-04-02T18:22:40.574Z,106.68
2023-04-02T18:25:37.056Z,112.15
2023-04-02T18:28:16.417Z,103.60
2023-04-02T18:30:50.056Z,126.43
2023-04-02T18:33:33.652Z,114.97
2023-04-02T18:36:10.437Z,146.57
2023-04-02T18:38:44.663Z,75.90
2023-04-02T18:41:28.530Z,121.43
2023-04-02T18:44:11.917Z,74.63
2023-04-02T18:46:45.059Z,73.97
2023-04-02T18:49:26.318Z,74.43
2023-04-02T18:51:59.626Z,83.30
2023-04-02T18:54:32.350Z,86.93
2023-04-02T18:57:02.861Z,114.30
2023-04-02T18:59:41.256Z,135.45
2023-04-02T19:02:30.243Z,109.93
2023-04-02T19:05:03.649Z,89.38
2023-04-02T19:07:37.864Z,236.25
2023-04-02T19:10:21.616Z,230.05
2023-04-02T19:12:50.462Z,136.15
2023-04-02T19:15:18.796Z,139.00
2023-04-02T19:17:54.062Z,134.07
2023-04-02T19:20:32.779Z,149.80
2023-04-02T19:23:12.281Z,170.57
2023-04-02T19:25:50.938Z,116.03
2023-04-02T19:28:29.212Z,211.93
2023-04-02T19:31:23.038Z,148.85
2023-04-02T19:33:56.905Z,76.93
2023-04-02T19:36:39.818Z,177.60
2023-04-02T19:39:49.853Z,150.73
2023-04-02T19:42:30.191Z,254.55
2023-04-02T19:44:58.198Z,219.45
2023-04-02T19:47:26.128Z,189.02
2023-04-02T19:49:54.647Z,108.82
2023-04-02T19:52:23.849Z,111.97
2023-04-02T19:54:53.094Z,87.63
2023-04-02T19:57:20.724Z,129.50
2023-04-02T19:59:50.929Z,65.90
2023-04-02T20:02:18.649Z,70.30
2023-04-02T20:04:46.202Z,63.72
2023-04-02T20:07:13.978Z,69.47
2023-04-02T20:09:43.423Z,76.15
2023-04-02T20:12:11.237Z,76.05
2023-04-02T20:14:41.722Z,81.60
2023-04-02T20:17:09.532Z,81.18
2023-04-02T20:19:37.159Z,78.68
2023-04-02T20:24:36.394Z,72.20
2023-04-02T20:27:08.381Z,64.93
2023-04-02T20:29:37.016Z,50.42
2023-04-02T20:32:04.849Z,63.45
2023-04-02T20:34:32.616Z,62.22
2023-04-02T20:37:00.854Z,74.20
2023-04-02T20:39:28.603Z,93.68
2023-04-02T20:41:56.172Z,61.92
2023-04-02T20:44:26.858Z,49.75
2023-04-02T20:46:55.076Z,62.00
2023-04-02T20:49:22.844Z,78.07
2023-04-02T20:51:53.826Z,56.20
2023-04-02T20:54:21.515Z,55.33
2023-04-02T20:56:50.419Z,54.85
2023-04-02T20:59:18.486Z,52.47
2023-04-02T21:01:47.569Z,53.78
2023-04-02T21:04:15.235Z,57.47
2023-04-02T21:06:44.120Z,55.38
2023-04-02T21:09:15.493Z,42.55
2023-04-02T21:11:45.908Z,47.70
2023-04-02T21:14:13.700Z,41.53
2023-04-02T21:16:43.508Z,37.03
2023-04-02T21:19:13.119Z,35.22
2023-04-02T21:21:41.250Z,38.17
2023-04-02T21:24:09.925Z,38.65
2023-04-02T21:26:40.556Z,39.38
2023-04-02T21:29:08.464Z,26.40
2023-04-02T21:31:38.079Z,24.33
2023-04-02T21:34:06.909Z,22.65
2023-04-02T21:36:37.826Z,25.27
2023-04-02T21:39:07.830Z,20.25
2023-04-02T21:41:39.229Z,15.18
2023-04-02T21:44:08.748Z,12.82
2023-04-02T21:46:38.634Z,12.10
2023-04-02T21:49:06.846Z,19.20
2023-04-02T21:51:37.008Z,12.73
2023-04-02T21:54:05.497Z,12.27
2023-04-02T21:56:36.092Z,8.48
2023-04-02T21:59:04.993Z,7.03
2023-04-02T22:01:35.295Z,10.35
2023-04-02T22:04:06.459Z,8.52
2023-04-02T22:06:39.721Z,6.80
2023-04-02T22:09:10.210Z,9.05
2023-04-02T22:11:42.169Z,7.88
2023-04-02T22:14:10.809Z,7.93
2023-04-02T22:16:39.509Z,9.38
2023-04-02T22:19:09.392Z,11.50
2023-04-02T22:21:39.172Z,9.52
2023-04-02T22:24:09.176Z,11.32
2023-04-02T22:26:37.599Z,9.13
2023-04-02T22:29:05.496Z,9.20
2023-04-02T22:31:34.088Z,11.45
2023-04-02T22:34:02.939Z,8.38
2023-04-02T22:36:31.305Z,7.90
2023-04-02T22:39:04.146Z,10.67
2023-04-02T22:41:31.906Z,8.75
2023-04-02T22:44:00.932Z,10.40
2023-04-02T22:46:28.968Z,10.05
2023-04-02T22:48:56.955Z,7.88
2023-04-02T22:51:25.477Z,10.00
2023-04-02T22:53:54.680Z,9.18
2023-04-02T22:56:25.529Z,9.15
2023-04-02T22:58:53.494Z,16.30
2023-04-02T23:01:23.189Z,12.65
2023-04-02T23:03:53.322Z,7.57
2023-04-02T23:06:22.448Z,10.15
2023-04-02T23:08:50.452Z,7.28
2023-04-02T23:11:21.234Z,15.68
2023-04-02T23:13:52.207Z,10.88
2023-04-02T23:16:20.751Z,14.35
2023-04-02T23:18:49.170Z,12.13
2023-04-02T23:21:18.808Z,10.88
2023-04-02T23:23:46.968Z,12.63
2023-04-02T23:26:16.334Z,14.27
2023-04-02T23:28:44.600Z,11.40
2023-04-02T23:31:16.235Z,12.18
2023-04-02T23:36:14.903Z,12.50
2023-04-02T23:38:45.456Z,10.98
2023-04-02T23:41:14.405Z,11.52
2023-04-02T23:43:42.864Z,10.32
2023-04-02T23:46:10.999Z,15.82
2023-04-02T23:48:40.622Z,16.92
2023-04-02T23:51:08.343Z,12.48
2023-04-02T23:53:36.084Z,13.63
2023-04-02T23:56:05.898Z,12.55
2023-04-02T23:58:33.455Z,11.30
